createdAt,value
2023-04-24T00:14:51.673Z,19.3
2023-04-24T00:34:51.646Z,19.3
2023-04-24T00:54:51.642Z,19.3
2023-04-24T01:14:51.611Z,19.3
2023-04-24T01:34:51.566Z,19.2
2023-04-24T01:54:51.565Z,19.2
2023-04-24T02:14:51.525Z,19.2
2023-04-24T02:34:51.464Z,19.2
2023-04-24T02:54:51.514Z,19.2
2023-04-24T03:14:51.433Z,19.2
2023-04-24T03:34:51.424Z,19.4
2023-04-24T03:54:51.416Z,19.5
2023-04-24T04:14:51.355Z,19.6
2023-04-24T04:34:51.365Z,19.8
2023-04-24T04:54:51.346Z,19.8
2023-04-24T05:14:51.283Z,19.9
2023-04-24T05:34:51.255Z,20.0
2023-04-24T05:54:51.319Z,20.0
2023-04-24T06:14:51.242Z,20.1
2023-04-24T06:34:51.214Z,20.1
2023-04-24T06:54:51.173Z,20.1
2023-04-24T07:14:51.162Z,20.1
2023-04-24T07:34:51.149Z,20.2
2023-04-24T07:54:51.075Z,20.2
2023-04-24T08:14:51.092Z,20.2
2023-04-24T08:34:51.057Z,20.2
2023-04-24T08:54:51.036Z,20.2
2023-04-24T09:14:51.015Z,20.2
2023-04-24T09:34:50.976Z,20.2
2023-04-24T09:54:51.010Z,20.2
2023-04-24T10:14:50.895Z,20.2
2023-04-24T10:34:50.907Z,20.2
2023-04-24T10:54:50.843Z,20.2
2023-04-24T11:14:50.927Z,20.2
2023-04-24T11:34:50.966Z,20.2
2023-04-24T11:54:50.877Z,20.2
2023-04-24T12:14:50.775Z,20.2
2023-04-24T12:34:50.734Z,20.2
2023-04-24T12:54:50.729Z,20.2
2023-04-24T13:14:50.690Z,20.2
2023-04-24T13:34:50.651Z,20.4
2023-04-24T13:54:50.627Z,20.4
2023-04-24T14:14:50.669Z,20.5
2023-04-24T14:34:50.609Z,20.4
2023-04-24T14:54:50.592Z,20.4
2023-04-24T15:14:50.560Z,20.4
2023-04-24T15:34:50.527Z,20.4
2023-04-24T15:54:50.482Z,20.3
2023-04-24T16:14:50.481Z,20.3
2023-04-24T16:34:50.451Z,20.3
2023-04-24T16:54:50.390Z,20.3
2023-04-24T17:14:50.404Z,20.3
2023-04-24T17:34:50.343Z,20.4
2023-04-24T17:54:50.336Z,20.5
2023-04-24T18:14:50.339Z,20.6
2023-04-24T18:34:50.266Z,20.6
2023-04-24T18:54:50.270Z,20.5
2023-04-24T19:14:50.212Z,20.6
2023-04-24T19:34:50.199Z,20.5
2023-04-24T19:54:50.203Z,20.5
2023-04-24T20:14:50.172Z,20.4
2023-04-24T20:34:50.136Z,20.3
2023-04-24T20:54:50.120Z,20.2
2023-04-24T21:14:50.083Z,20.1
2023-04-24T21:34:50.022Z,20.0
2023-04-24T21:54:50.042Z,19.9
2023-04-24T22:14:49.990Z,19.9
2023-04-24T22:34:49.954Z,19.8
2023-04-24T22:54:49.928Z,19.8
2023-04-24T23:14:49.958Z,19.7
2023-04-24T23:34:49.909Z,19.6
2023-04-24T23:54:49.857Z,19.6
